Time;durP1;ratioP1;P1;durP2;ratioP2;P2;SDS_P1;SDS_P2;PMS_P1;PMS_P2;Temp;Humidity;BMP_temperature;BMP_pressure;BME280_temperature;BME280_humidity;BME280_pressure;Samples;Min_cycle;Max_cycle;Signal;HPM_P1;HPM_P2
2022/03/11 00:01:32;;;;;;;;;29.75;29.75;;;;;0.70;45.44;100519.94;4949638;28;8899;-83
2022/03/11 00:04:02;;;;;;;;;31.50;30.00;;;;;0.73;45.36;100526.13;4933236;28;8910;-82
2022/03/11 00:06:31;;;;;;;;;39.50;31.00;;;;;0.84;45.57;100533.53;4948835;28;8883;-85
2022/03/11 00:08:59;;;;;;;;;21.75;16.25;;;;;0.85;45.04;100530.16;4949341;28;8886;-82
2022/03/11 00:11:28;;;;;;;;;32.50;29.00;;;;;0.91;45.33;100526.25;4956412;28;8909;-81
2022/03/11 00:13:59;;;;;;;;;34.50;32.00;;;;;0.93;45.48;100527.22;4938172;28;8870;-80
2022/03/11 00:16:27;;;;;;;;;30.75;29.00;;;;;0.98;45.37;100522.31;4936419;28;8863;-81
2022/03/11 00:18:56;;;;;;;;;27.25;25.00;;;;;0.77;45.30;100519.47;4986121;28;9599;-82
2022/03/11 00:21:27;;;;;;;;;34.00;26.75;;;;;0.78;45.54;100516.13;4971218;28;9623;-81
2022/03/11 00:23:56;;;;;;;;;27.50;25.00;;;;;0.81;45.24;100518.81;4981645;28;8883;-81
2022/03/11 00:26:26;;;;;;;;;24.00;24.00;;;;;0.77;44.89;100524.59;4958981;28;8907;-83
2022/03/11 00:28:55;;;;;;;;;24.75;24.75;;;;;0.82;45.57;100524.88;4989502;28;9664;-82
2022/03/11 00:31:27;;;;;;;;;30.25;29.00;;;;;0.90;45.13;100523.59;4973345;28;8885;-82
2022/03/11 00:33:56;;;;;;;;;24.50;23.25;;;;;0.94;45.02;100518.69;4989526;28;8869;-79
2022/03/11 00:36:25;;;;;;;;;34.75;29.50;;;;;1.02;45.31;100518.22;4989078;28;8880;-81
2022/03/11 00:38:54;;;;;;;;;32.00;27.75;;;;;0.88;45.25;100523.50;4975875;28;8991;-81
2022/03/11 00:41:23;;;;;;;;;27.00;26.00;;;;;0.95;45.16;100517.03;4969868;28;8999;-81
2022/03/11 00:43:53;;;;;;;;;30.50;30.00;;;;;1.04;45.18;100511.47;4953240;28;8879;-82
2022/03/11 00:46:21;;;;;;;;;35.00;34.25;;;;;1.07;45.23;100515.09;4976767;28;8873;-82
2022/03/11 00:48:52;;;;;;;;;34.75;32.00;;;;;1.08;45.59;100519.44;4959369;28;8851;-80
2022/03/11 00:51:20;;;;;;;;;24.25;24.00;;;;;1.08;45.37;100518.56;4956576;28;8863;-80
2022/03/11 00:53:49;;;;;;;;;32.25;28.50;;;;;1.03;44.92;100520.00;4959978;28;8889;-79
2022/03/11 00:56:18;;;;;;;;;35.50;31.50;;;;;1.01;45.38;100519.03;4975328;28;8945;-80
2022/03/11 00:58:47;;;;;;;;;33.00;28.75;;;;;1.02;45.42;100520.78;4975895;28;8959;-80
2022/03/11 01:01:17;;;;;;;;;30.50;25.50;;;;;1.01;45.12;100524.19;4967722;28;8883;-81
2022/03/11 01:03:46;;;;;;;;;33.25;32.75;;;;;0.90;45.90;100515.88;4967999;28;8869;-82
2022/03/11 01:06:17;;;;;;;;;38.50;32.75;;;;;0.88;45.95;100525.19;4972714;28;8989;-81
2022/03/11 01:08:46;;;;;;;;;34.50;26.75;;;;;0.94;46.37;100517.81;4988522;28;8942;-80
2022/03/11 01:11:15;;;;;;;;;33.50;32.00;;;;;0.91;45.93;100525.38;4988506;28;8903;-83
2022/03/11 01:13:48;;;;;;;;;42.25;37.00;;;;;0.80;46.34;100521.34;4972165;28;8908;-82
2022/03/11 01:16:17;;;;;;;;;30.50;29.25;;;;;0.73;46.06;100525.25;4971477;28;8945;-80
2022/03/11 01:18:46;;;;;;;;;33.00;30.75;;;;;0.65;46.01;100523.94;4990769;28;8924;-82
2022/03/11 01:21:16;;;;;;;;;25.00;25.00;;;;;0.70;46.33;100525.97;4990517;28;8970;-81
2022/03/11 01:23:45;;;;;;;;;27.25;26.00;;;;;0.77;46.37;100525.47;4972945;28;8844;-81
2022/03/11 01:26:16;;;;;;;;;15.75;15.25;;;;;0.74;45.89;100520.19;4987699;28;9623;-80
2022/03/11 01:28:45;;;;;;;;;26.50;23.50;;;;;0.74;45.66;100529.59;4940953;28;8851;-81
2022/03/11 01:31:16;;;;;;;;;29.00;25.25;;;;;0.68;46.65;100519.88;4971460;28;8955;-83
2022/03/11 01:33:45;;;;;;;;;29.50;27.00;;;;;0.69;46.23;100523.31;4994984;28;8876;-82
2022/03/11 01:36:17;;;;;;;;;26.75;25.00;;;;;0.53;46.28;100521.56;4968321;28;8860;-79
2022/03/11 01:38:46;;;;;;;;;25.00;21.00;;;;;0.46;46.75;100517.78;5007681;28;9039;-82
2022/03/11 01:41:15;;;;;;;;;28.75;24.00;;;;;0.25;47.09;100524.28;4992062;28;8869;-80
2022/03/11 01:43:51;;;;;;;;;22.50;19.00;;;;;0.38;46.76;100519.06;4990007;28;8884;-85
2022/03/11 01:46:21;;;;;;;;;21.25;19.25;;;;;0.17;47.34;100523.84;4976261;28;8872;-80
2022/03/11 01:48:51;;;;;;;;;27.00;22.50;;;;;0.11;47.31;100526.94;4993138;28;8883;-79
2022/03/11 01:51:21;;;;;;;;;23.25;19.50;;;;;0.04;46.88;100529.97;4991618;28;8962;-80
2022/03/11 01:53:51;;;;;;;;;29.50;24.75;;;;;0.06;47.34;100535.16;4977281;28;8881;-83
2022/03/11 01:56:20;;;;;;;;;17.75;17.75;;;;;0.04;47.60;100542.78;4947477;28;8982;-80
2022/03/11 01:58:50;;;;;;;;;25.00;21.50;;;;;0.17;47.03;100534.09;4991065;28;8877;-79
2022/03/11 02:01:20;;;;;;;;;22.00;21.50;;;;;0.28;47.06;100533.03;4976228;28;8868;-81
2022/03/11 02:03:50;;;;;;;;;30.75;23.50;;;;;0.30;46.93;100534.03;4992743;28;8849;-81
2022/03/11 02:06:21;;;;;;;;;28.25;19.50;;;;;0.28;47.09;100535.59;4983460;28;8865;-79
2022/03/11 02:08:51;;;;;;;;;25.75;23.50;;;;;0.28;47.43;100542.41;4991499;28;8864;-83
2022/03/11 02:11:20;;;;;;;;;21.00;19.50;;;;;0.36;47.37;100531.78;4975247;28;8877;-81
2022/03/11 02:13:52;;;;;;;;;24.67;23.33;;;;;0.47;47.00;100539.19;4972291;28;8994;-82
2022/03/11 02:16:23;;;;;;;;;26.75;23.00;;;;;0.33;47.54;100529.03;4971674;28;9015;-82
2022/03/11 02:18:53;;;;;;;;;23.50;19.00;;;;;0.33;47.46;100535.88;4975724;28;8915;-81
2022/03/11 02:21:25;;;;;;;;;25.75;24.50;;;;;0.32;47.64;100540.13;4972341;28;8887;-83
2022/03/11 02:23:57;;;;;;;;;23.25;21.25;;;;;0.43;47.00;100532.13;4988619;28;9642;-83
2022/03/11 02:26:29;;;;;;;;;12.50;10.00;;;;;0.56;46.63;100532.00;4974904;28;9705;-80
2022/03/11 02:29:00;;;;;;;;;14.00;10.75;;;;;0.47;46.54;100529.81;4971168;28;8875;-81
2022/03/11 02:31:34;;;;;;;;;24.00;21.00;;;;;0.39;46.71;100529.38;4966183;28;8887;-81
2022/03/11 02:34:05;;;;;;;;;19.50;18.25;;;;;0.41;46.68;100539.72;4958220;28;8901;-82
2022/03/11 02:36:34;;;;;;;;;21.25;20.50;;;;;0.34;46.06;100541.09;4972437;28;9064;-80
2022/03/11 02:39:06;;;;;;;;;21.50;19.25;;;;;0.39;46.17;100536.19;4992762;28;8872;-80
2022/03/11 02:41:36;;;;;;;;;22.00;21.00;;;;;0.29;46.63;100546.75;5010294;28;8861;-80
2022/03/11 02:44:06;;;;;;;;;17.25;17.00;;;;;0.28;46.00;100550.09;5006035;28;8881;-80
2022/03/11 02:46:35;;;;;;;;;21.25;17.75;;;;;0.34;46.00;100548.78;4991520;28;9000;-79
2022/03/11 02:49:04;;;;;;;;;21.50;19.50;;;;;0.32;46.57;100547.81;4992560;28;8976;-82
2022/03/11 02:51:33;;;;;;;;;28.25;20.50;;;;;0.32;46.27;100546.91;4972333;28;8863;-81
2022/03/11 02:54:01;;;;;;;;;18.75;16.00;;;;;0.21;45.88;100546.31;4987080;28;8907;-80
2022/03/11 02:56:33;;;;;;;;;18.25;17.00;;;;;0.27;45.73;100548.34;4972991;28;8913;-83
2022/03/11 02:59:02;;;;;;;;;22.25;20.25;;;;;-0.06;45.97;100554.19;4991336;28;8899;-79
2022/03/11 03:01:32;;;;;;;;;29.50;25.25;;;;;-0.08;46.55;100562.56;4989771;28;8893;-81
2022/03/11 03:04:01;;;;;;;;;24.75;21.00;;;;;-0.13;45.88;100553.72;4973420;28;9721;-81
2022/03/11 03:06:30;;;;;;;;;23.75;19.75;;;;;-0.18;46.55;100555.16;4986788;28;8992;-81
2022/03/11 03:08:59;;;;;;;;;19.00;19.00;;;;;-0.24;46.04;100564.25;4952646;28;8905;-80
2022/03/11 03:11:28;;;;;;;;;21.25;21.00;;;;;-0.09;45.90;100564.25;4973122;28;8939;-81
2022/03/11 03:13:59;;;;;;;;;22.25;20.50;;;;;-0.22;45.82;100570.34;4970350;28;8883;-82
2022/03/11 03:16:28;;;;;;;;;23.25;19.25;;;;;-0.16;46.02;100568.94;4972807;28;8885;-83
2022/03/11 03:18:57;;;;;;;;;22.50;20.50;;;;;-0.11;46.09;100563.28;4956881;28;8892;-81
2022/03/11 03:21:27;;;;;;;;;22.25;21.00;;;;;-0.05;45.89;100563.63;4973089;28;8915;-80
2022/03/11 03:23:56;;;;;;;;;24.25;24.25;;;;;-0.14;46.58;100557.97;4988590;28;8888;-82
2022/03/11 03:26:25;;;;;;;;;20.75;20.75;;;;;-0.28;46.59;100566.53;4976162;28;8906;-82
2022/03/11 03:28:54;;;;;;;;;19.50;16.50;;;;;-0.31;46.24;100569.78;4989100;28;8881;-82
2022/03/11 03:31:25;;;;;;;;;24.50;19.50;;;;;-0.36;45.97;100573.75;4987089;28;8891;-83
2022/03/11 03:33:54;;;;;;;;;21.75;19.00;;;;;-0.31;46.08;100574.91;4990430;28;8888;-81
2022/03/11 03:36:22;;;;;;;;;26.75;21.25;;;;;-0.30;45.83;100573.22;4976559;28;8863;-81
2022/03/11 03:38:51;;;;;;;;;21.00;16.50;;;;;-0.31;46.04;100567.22;4970745;28;8883;-80
2022/03/11 03:41:20;;;;;;;;;21.75;20.25;;;;;-0.31;46.37;100563.78;4982763;28;8987;-82
2022/03/11 03:43:49;;;;;;;;;26.50;24.50;;;;;-0.29;45.83;100570.75;4973881;28;8911;-81
2022/03/11 03:46:18;;;;;;;;;19.25;18.25;;;;;-0.32;46.44;100567.13;4949130;28;9316;-83
2022/03/11 03:48:49;;;;;;;;;18.50;18.50;;;;;-0.43;45.74;100574.19;4989159;28;8929;-81
2022/03/11 03:51:20;;;;;;;;;22.50;16.00;;;;;-0.46;46.02;100572.31;4991384;28;8938;-80
2022/03/11 03:53:49;;;;;;;;;25.25;22.00;;;;;-0.44;46.08;100572.41;4972346;28;8906;-82
2022/03/11 03:56:18;;;;;;;;;24.00;22.50;;;;;-0.47;46.43;100574.81;4973814;28;8852;-82
2022/03/11 03:58:47;;;;;;;;;24.50;20.50;;;;;-0.47;46.78;100573.13;4990263;28;8903;-82
2022/03/11 04:01:16;;;;;;;;;23.00;21.00;;;;;-0.43;46.43;100581.88;4989834;28;8907;-81
2022/03/11 04:03:45;;;;;;;;;21.00;19.50;;;;;-0.49;46.28;100577.28;4972234;28;8864;-84
2022/03/11 04:06:15;;;;;;;;;23.50;19.00;;;;;-2.24;51.49;100592.59;4989994;28;8927;-79
2022/03/11 04:08:44;;;;;;;;;23.00;23.00;;;;;-2.23;52.12;100596.94;4971137;28;9039;-79
2022/03/11 04:11:13;;;;;;;;;21.25;17.25;;;;;-2.64;53.25;100606.88;4990924;28;8849;-80
2022/03/11 04:13:42;;;;;;;;;23.00;18.50;;;;;-3.03;54.89;100616.94;4994570;28;8891;-79
2022/03/11 04:16:11;;;;;;;;;21.75;21.25;;;;;-3.69;57.51;100618.94;4995538;28;8890;-81
2022/03/11 04:18:41;;;;;;;;;24.50;21.00;;;;;-3.98;58.64;100631.28;4977275;28;8886;-80
2022/03/11 04:21:10;;;;;;;;;11.50;10.50;;;;;-3.96;57.81;100627.19;4974211;28;8857;-81
2022/03/11 04:23:40;;;;;;;;;20.75;20.00;;;;;-4.10;58.82;100630.41;4973375;28;8986;-79
2022/03/11 04:26:09;;;;;;;;;20.50;16.50;;;;;-4.31;59.61;100643.28;4970370;28;8867;-80
2022/03/11 04:28:39;;;;;;;;;21.00;17.50;;;;;-4.38;59.41;100638.47;4990064;28;8950;-80
2022/03/11 04:31:09;;;;;;;;;18.25;16.25;;;;;-4.48;59.87;100640.19;4993370;28;9029;-80
2022/03/11 04:33:40;;;;;;;;;16.00;14.00;;;;;-4.54;59.91;100644.06;4981477;28;8883;-80
2022/03/11 04:36:11;;;;;;;;;22.00;18.50;;;;;-4.62;59.76;100642.56;4979314;28;8894;-80
2022/03/11 04:38:42;;;;;;;;;17.50;17.50;;;;;-4.55;60.08;100646.47;4989145;28;8884;-81
2022/03/11 04:41:12;;;;;;;;;20.00;20.00;;;;;-4.55;59.88;100649.91;4972925;28;8910;-80
2022/03/11 04:43:42;;;;;;;;;19.00;16.25;;;;;-4.82;61.38;100652.84;4982844;28;9094;-81
2022/03/11 04:46:12;;;;;;;;;14.25;12.50;;;;;-4.86;61.98;100644.06;4982388;28;8864;-81
2022/03/11 04:48:43;;;;;;;;;21.75;18.50;;;;;-4.90;61.52;100654.78;4960903;28;8873;-82
2022/03/11 04:51:12;;;;;;;;;20.00;19.75;;;;;-4.97;62.63;100658.53;4988525;28;8865;-84
2022/03/11 04:53:44;;;;;;;;;20.50;19.25;;;;;-4.99;62.77;100667.69;4966021;28;8867;-80
2022/03/11 04:56:13;;;;;;;;;30.25;25.00;;;;;-5.04;61.52;100663.88;4982165;28;8877;-80
2022/03/11 04:58:42;;;;;;;;;17.50;15.25;;;;;-5.18;62.40;100669.50;4950918;28;8883;-79
2022/03/11 05:01:11;;;;;;;;;17.50;17.50;;;;;-5.22;61.70;100676.00;4920179;28;8965;-78
2022/03/11 05:03:40;;;;;;;;;18.00;16.00;;;;;-5.31;62.26;100681.25;4936085;28;8903;-80
2022/03/11 05:06:11;;;;;;;;;17.00;15.75;;;;;-5.24;62.24;100676.66;4932818;28;9604;-80
2022/03/11 05:08:40;;;;;;;;;18.25;13.00;;;;;-5.16;61.99;100681.59;4966152;28;8887;-80
2022/03/11 05:11:11;;;;;;;;;21.00;18.25;;;;;-5.13;61.97;100676.75;4934970;28;8875;-79
2022/03/11 05:13:43;;;;;;;;;15.75;15.75;;;;;-4.90;61.20;100682.75;4941430;28;8856;-82
2022/03/11 05:16:12;;;;;;;;;13.50;12.75;;;;;-4.92;61.63;100686.84;4979007;28;8993;-82
2022/03/11 05:19:01;;;;;;;;;13.25;11.25;;;;;-4.72;59.97;100686.78;4911224;29;8902;-79
2022/03/11 05:21:30;;;;;;;;;13.00;12.50;;;;;-4.79;60.97;100687.03;4903705;29;8873;-82
2022/03/11 05:24:00;;;;;;;;;16.00;13.50;;;;;-4.99;61.06;100697.28;4900360;29;8956;-80
2022/03/11 05:26:31;;;;;;;;;16.75;15.25;;;;;-4.99;62.09;100695.66;4912120;28;8905;-81
2022/03/11 05:29:00;;;;;;;;;14.75;14.75;;;;;-4.91;61.03;100691.19;4915300;29;8883;-80
2022/03/11 05:31:29;;;;;;;;;17.00;17.00;;;;;-4.84;60.46;100687.44;4924368;28;8866;-81
2022/03/11 05:33:58;;;;;;;;;22.00;17.75;;;;;-4.88;61.99;100682.91;4949243;28;8858;-78
2022/03/11 05:36:28;;;;;;;;;26.50;24.75;;;;;-4.68;60.41;100698.06;4956183;28;8982;-82
2022/03/11 05:38:57;;;;;;;;;18.75;16.50;;;;;-4.77;60.43;100688.06;4972356;28;8841;-79
2022/03/11 05:41:27;;;;;;;;;22.50;21.75;;;;;-4.84;60.89;100693.41;4987657;28;8865;-81
2022/03/11 05:43:57;;;;;;;;;22.00;21.25;;;;;-4.90;62.51;100690.41;4988298;28;8853;-80
2022/03/11 05:46:26;;;;;;;;;21.00;18.00;;;;;-4.80;62.63;100689.47;4988988;28;8880;-79
2022/03/11 05:48:55;;;;;;;;;24.25;21.50;;;;;-4.74;62.84;100695.06;4984136;28;8884;-80
2022/03/11 05:51:24;;;;;;;;;26.00;24.00;;;;;-4.56;62.18;100693.06;4988273;28;8877;-81
2022/03/11 05:53:52;;;;;;;;;19.50;19.50;;;;;-4.49;61.39;100699.53;4971272;28;8891;-82
2022/03/11 05:56:21;;;;;;;;;41.00;36.00;;;;;-4.60;62.35;100703.75;4987817;28;8990;-80
2022/03/11 05:58:50;;;;;;;;;15.00;14.00;;;;;-4.73;62.37;100707.00;4920870;28;8969;-82
2022/03/11 06:01:21;;;;;;;;;29.75;27.00;;;;;-4.79;62.20;100703.97;4980152;28;8885;-83
2022/03/11 06:03:51;;;;;;;;;26.50;24.50;;;;;-4.71;62.29;100705.47;4941908;28;8978;-81
2022/03/11 06:06:19;;;;;;;;;23.25;23.25;;;;;-4.32;62.24;100710.22;4991298;28;8885;-79
2022/03/11 06:08:48;;;;;;;;;23.50;22.75;;;;;-4.06;60.31;100703.72;4975809;28;8865;-81
2022/03/11 06:11:22;;;;;;;;;23.50;22.50;;;;;-4.32;60.50;100702.59;4975578;28;8887;-79
2022/03/11 06:13:51;;;;;;;;;20.00;19.75;;;;;-4.44;60.78;100708.38;4939585;28;8897;-80
2022/03/11 06:16:22;;;;;;;;;27.00;24.75;;;;;-4.56;62.15;100706.66;4982684;28;8887;-80
2022/03/11 06:18:51;;;;;;;;;24.25;22.00;;;;;-4.63;62.37;100709.50;4988313;28;8879;-80
2022/03/11 06:21:20;;;;;;;;;26.50;24.00;;;;;-4.37;61.71;100701.34;4955864;28;8875;-79
2022/03/11 06:23:49;;;;;;;;;26.00;24.25;;;;;-3.95;61.72;100707.06;4987384;28;8869;-81
2022/03/11 06:26:18;;;;;;;;;28.00;25.00;;;;;-3.97;60.65;100709.50;4974090;28;8972;-81
2022/03/11 06:28:47;;;;;;;;;26.75;21.50;;;;;-3.81;60.61;100703.91;4975240;28;9006;-79
2022/03/11 06:31:16;;;;;;;;;24.50;23.75;;;;;-3.75;59.41;100714.56;4961777;28;8969;-81
2022/03/11 06:33:47;;;;;;;;;23.00;23.00;;;;;-3.93;60.18;100718.28;4991133;28;9703;-80
2022/03/11 06:36:16;;;;;;;;;26.50;23.50;;;;;-4.22;60.47;100727.09;4973597;28;9005;-82
2022/03/11 06:38:45;;;;;;;;;26.25;22.00;;;;;-4.07;59.88;100722.31;4971124;28;8891;-81
2022/03/11 06:41:14;;;;;;;;;25.75;22.00;;;;;-4.01;60.57;100722.75;4939937;28;8864;-81
2022/03/11 06:43:43;;;;;;;;;26.00;22.50;;;;;-4.16;61.05;100724.13;4962219;28;8902;-82
2022/03/11 06:46:12;;;;;;;;;23.50;22.25;;;;;-3.88;60.28;100726.25;5000420;28;8888;-80
2022/03/11 06:48:41;;;;;;;;;28.75;26.75;;;;;-3.55;58.70;100728.81;4998940;28;8881;-81
2022/03/11 06:51:12;;;;;;;;;33.00;28.50;;;;;-3.10;58.18;100724.44;4982757;28;8891;-82
2022/03/11 06:53:41;;;;;;;;;24.25;22.50;;;;;-2.66;56.78;100721.63;4973155;28;8864;-81
2022/03/11 06:56:10;;;;;;;;;18.50;18.00;;;;;-2.48;55.20;100724.59;5000090;28;8894;-79
2022/03/11 06:58:39;;;;;;;;;26.50;19.00;;;;;-2.16;54.96;100728.50;4962380;28;8963;-85
2022/03/11 07:01:08;;;;;;;;;21.00;19.25;;;;;-1.73;53.74;100722.91;4970780;28;8856;-83
2022/03/11 07:03:38;;;;;;;;;23.00;22.25;;;;;-1.37;52.68;100733.03;4957147;28;8962;-81
2022/03/11 07:06:07;;;;;;;;;18.25;17.00;;;;;-1.23;51.67;100733.03;4972034;28;8891;-81
2022/03/11 07:08:38;;;;;;;;;27.00;24.00;;;;;-2.06;52.68;100741.16;4968482;28;9133;-82
2022/03/11 07:11:07;;;;;;;;;21.50;19.50;;;;;-2.59;55.07;100739.19;4935595;28;8893;-81
2022/03/11 07:13:36;;;;;;;;;23.00;20.25;;;;;-2.77;55.97;100751.50;4938869;28;8917;-80
2022/03/11 07:16:08;;;;;;;;;33.75;29.75;;;;;-3.14;56.05;100746.28;4935693;28;8854;-80
2022/03/11 07:18:39;;;;;;;;;22.75;21.75;;;;;-3.35;57.27;100759.97;4948816;28;8863;-81
2022/03/11 07:21:09;;;;;;;;;24.50;19.50;;;;;-3.31;57.33;100767.09;4936293;28;8879;-81
2022/03/11 07:23:39;;;;;;;;;22.75;21.50;;;;;-3.53;57.67;100760.41;4936081;28;8893;-73
2022/03/11 07:26:08;;;;;;;;;27.25;25.25;;;;;-3.55;58.06;100768.72;4941468;28;9114;-72
2022/03/11 07:28:37;;;;;;;;;24.75;20.25;;;;;-3.60;58.37;100772.56;4904307;28;8895;-73
2022/03/11 07:31:05;;;;;;;;;26.75;24.75;;;;;-3.65;58.54;100779.84;4935440;28;8875;-75
2022/03/11 07:33:34;;;;;;;;;25.50;20.75;;;;;-3.64;59.17;100783.31;4951137;28;8949;-75
2022/03/11 07:36:03;;;;;;;;;24.00;21.75;;;;;-3.68;58.79;100783.84;4944828;28;9000;-77
2022/03/11 07:38:32;;;;;;;;;23.50;22.75;;;;;-3.74;58.31;100779.19;4939056;28;8888;-77
2022/03/11 07:41:02;;;;;;;;;22.75;21.75;;;;;-3.77;59.64;100779.81;4968117;28;8859;-77
2022/03/11 07:43:30;;;;;;;;;20.25;19.75;;;;;-3.55;58.65;100786.56;4960446;28;9663;-75
2022/03/11 07:45:59;;;;;;;;;33.50;28.75;;;;;-3.70;59.40;100787.91;4983129;28;8915;-76
2022/03/11 07:48:28;;;;;;;;;29.50;26.50;;;;;-3.60;59.36;100786.19;4978038;28;8857;-76
2022/03/11 07:50:57;;;;;;;;;29.50;23.25;;;;;-3.78;59.82;100784.78;4971035;28;8885;-73
2022/03/11 07:53:26;;;;;;;;;30.00;24.50;;;;;-3.70;59.99;100782.81;4969321;28;8871;-76
2022/03/11 07:55:54;;;;;;;;;23.25;18.25;;;;;-3.69;59.24;100785.50;4999245;28;8880;-76
2022/03/11 07:58:24;;;;;;;;;28.50;23.25;;;;;-3.77;59.35;100778.94;4988312;28;8863;-75
2022/03/11 08:00:53;;;;;;;;;30.00;28.00;;;;;-3.50;59.17;100781.78;4989042;28;8884;-76
2022/03/11 08:03:22;;;;;;;;;31.00;27.75;;;;;-3.17;58.08;100779.22;4956303;28;8885;-76
2022/03/11 08:05:51;;;;;;;;;42.00;34.75;;;;;-3.01;58.08;100778.66;4979942;28;8867;-74
2022/03/11 08:08:20;;;;;;;;;27.25;23.50;;;;;-2.97;58.08;100788.34;4990946;28;8846;-74
2022/03/11 08:10:49;;;;;;;;;37.50;34.50;;;;;-2.73;57.18;100779.81;4973716;28;8911;-74
2022/03/11 08:13:35;;;;;;;;;31.25;31.25;;;;;-2.73;56.01;100790.03;4981717;28;8871;-76
2022/03/11 08:16:04;;;;;;;;;33.25;30.00;;;;;-3.02;57.16;100784.56;4975896;28;8884;-74
2022/03/11 08:18:34;;;;;;;;;31.00;27.50;;;;;-2.79;56.88;100781.13;4977421;28;8895;-75
2022/03/11 08:21:03;;;;;;;;;32.75;28.50;;;;;-2.47;56.31;100784.25;4981242;28;8916;-77
2022/03/11 08:23:32;;;;;;;;;37.50;31.50;;;;;-2.64;56.57;100780.47;4983251;28;8889;-75
2022/03/11 08:26:01;;;;;;;;;39.50;35.75;;;;;-2.46;57.31;100776.66;4987840;28;8868;-74
2022/03/11 08:28:29;;;;;;;;;34.75;30.75;;;;;-2.71;57.08;100781.69;4989802;28;8844;-76
2022/03/11 08:30:59;;;;;;;;;32.00;28.25;;;;;-2.46;56.06;100766.44;4975219;28;8899;-75
2022/03/11 08:33:30;;;;;;;;;31.50;28.75;;;;;-2.21;56.25;100774.19;4973399;28;8865;-75
2022/03/11 08:36:19;;;;;;;;;28.00;26.00;;;;;-2.32;56.38;100774.22;4972671;28;8873;-74
2022/03/11 08:38:51;;;;;;;;;35.00;33.00;;;;;-2.24;56.37;100775.66;4987754;28;8963;-75
2022/03/11 08:41:20;;;;;;;;;34.00;28.50;;;;;-2.17;55.55;100775.31;4937955;28;8895;-74
2022/03/11 08:43:51;;;;;;;;;34.25;32.25;;;;;-2.41;56.70;100769.34;4987374;28;8872;-73
2022/03/11 08:46:21;;;;;;;;;30.50;28.50;;;;;-1.90;55.24;100771.22;4986512;28;8970;-73
2022/03/11 08:48:51;;;;;;;;;32.25;31.75;;;;;-2.06;55.41;100768.38;4954433;28;8868;-75
2022/03/11 08:51:20;;;;;;;;;28.75;27.75;;;;;-2.16;56.23;100779.63;4986074;28;8947;-74
2022/03/11 08:53:49;;;;;;;;;22.75;19.00;;;;;-2.08;56.17;100778.50;4994597;28;8915;-77
2022/03/11 08:56:21;;;;;;;;;35.75;27.25;;;;;-1.78;55.74;100769.50;4987384;28;8879;-76
2022/03/11 08:58:51;;;;;;;;;26.00;23.75;;;;;-2.00;55.81;100773.91;4986823;28;8845;-75
2022/03/11 09:01:21;;;;;;;;;33.25;26.75;;;;;-1.88;55.10;100782.44;4970601;28;8873;-77
2022/03/11 09:03:50;;;;;;;;;27.25;22.50;;;;;-1.86;55.86;100774.88;4988748;28;8857;-76
2022/03/11 09:06:19;;;;;;;;;36.00;34.25;;;;;-1.63;55.48;100779.00;4987302;28;8891;-75
2022/03/11 09:08:47;;;;;;;;;28.25;26.00;;;;;-1.51;54.93;100777.28;4967378;28;8883;-73
2022/03/11 09:11:16;;;;;;;;;34.25;28.25;;;;;-1.62;54.52;100784.22;4983666;28;8902;-74
2022/03/11 09:13:50;;;;;;;;;36.00;32.50;;;;;-1.48;54.92;100774.91;4986603;28;9584;-75
2022/03/11 09:16:20;;;;;;;;;35.50;32.75;;;;;-1.40;55.02;100770.31;4988782;28;8894;-75
2022/03/11 09:18:49;;;;;;;;;30.00;30.00;;;;;-1.18;53.96;100768.38;4989259;28;8874;-76
2022/03/11 09:21:18;;;;;;;;;37.75;33.25;;;;;-0.98;53.94;100764.59;4968262;28;8880;-75
2022/03/11 09:23:48;;;;;;;;;30.75;24.75;;;;;-0.55;53.31;100763.00;4957935;28;9167;-77
2022/03/11 09:26:17;;;;;;;;;38.00;36.25;;;;;-0.56;53.05;100764.69;4986212;28;8893;-76
2022/03/11 09:28:46;;;;;;;;;32.00;31.25;;;;;-0.21;52.40;100763.44;4950409;28;8875;-74
2022/03/11 09:31:15;;;;;;;;;36.75;29.50;;;;;-0.02;52.34;100770.59;4979613;28;8947;-75
2022/03/11 09:33:44;;;;;;;;;41.00;38.25;;;;;-0.33;52.08;100760.13;4969414;28;9014;-75
2022/03/11 09:36:13;;;;;;;;;35.00;33.75;;;;;-0.18;51.79;100757.66;4969439;28;8899;-74
2022/03/11 09:38:43;;;;;;;;;34.50;33.75;;;;;-0.13;52.22;100759.72;4953984;28;9043;-75
2022/03/11 09:41:13;;;;;;;;;34.25;32.50;;;;;-0.40;53.29;100774.22;4957394;28;8872;-73
2022/03/11 09:43:42;;;;;;;;;36.25;35.50;;;;;0.05;52.67;100764.19;4929099;28;8857;-73
2022/03/11 09:46:12;;;;;;;;;39.25;35.50;;;;;0.32;51.06;100764.97;4956289;28;9629;-74
2022/03/11 09:48:43;;;;;;;;;32.50;31.50;;;;;-0.16;51.97;100766.31;4989350;28;8891;-75
2022/03/11 09:51:12;;;;;;;;;36.75;33.50;;;;;0.18;51.95;100766.72;4969473;28;9703;-73
2022/03/11 09:53:43;;;;;;;;;18.75;18.25;;;;;0.67;51.05;100751.66;4965880;28;8861;-75
2022/03/11 09:56:12;;;;;;;;;37.50;35.00;;;;;0.57;49.61;100760.50;4990842;28;8876;-74
2022/03/11 09:58:41;;;;;;;;;38.00;33.50;;;;;0.71;49.82;100756.19;4990266;28;8981;-73
2022/03/11 10:01:10;;;;;;;;;33.00;29.75;;;;;1.19;49.64;100755.47;4990979;28;8899;-75
2022/03/11 10:03:39;;;;;;;;;47.50;42.00;;;;;0.74;49.19;100760.63;4971950;28;8898;-75
2022/03/11 10:06:11;;;;;;;;;41.75;39.00;;;;;0.58;50.39;100756.25;4984344;28;8950;-75
2022/03/11 10:08:42;;;;;;;;;33.25;31.25;;;;;0.54;51.24;100752.63;4973445;28;8877;-76
2022/03/11 10:11:19;;;;;;;;;43.50;36.00;;;;;0.29;51.04;100752.84;4989809;28;8905;-77
2022/03/11 10:13:52;;;;;;;;;33.00;27.75;;;;;0.07;51.22;100760.91;4989820;28;8876;-74
2022/03/11 10:16:22;;;;;;;;;28.50;22.50;;;;;0.44;51.67;100745.19;5006333;28;8896;-77
2022/03/11 10:18:56;;;;;;;;;27.75;27.75;;;;;0.70;49.87;100754.44;4991258;28;8880;-74
2022/03/11 10:21:32;;;;;;;;;36.50;34.50;;;;;0.34;50.99;100753.09;4977858;28;9622;-76
2022/03/11 10:24:01;;;;;;;;;31.67;29.67;;;;;0.53;50.36;100753.44;4990028;28;9642;-74
2022/03/11 10:26:36;;;;;;;;;33.75;27.00;;;;;0.80;49.20;100745.56;4973826;28;8869;-73
2022/03/11 10:29:11;;;;;;;;;32.00;27.75;;;;;0.85;50.06;100745.81;4955963;28;8876;-75
2022/03/11 10:31:43;;;;;;;;;36.50;30.00;;;;;1.38;49.01;100741.97;4990005;28;8987;-76
2022/03/11 10:34:21;;;;;;;;;25.50;22.50;;;;;1.82;48.45;100744.41;4940486;28;8926;-74
2022/03/11 10:36:54;;;;;;;;;35.50;34.25;;;;;1.72;48.04;100742.13;4908703;28;9403;-76
2022/03/11 10:39:26;;;;;;;;;28.25;26.75;;;;;1.67;47.35;100733.28;4973638;28;8873;-74
2022/03/11 10:42:18;;;;;;;;;32.00;30.75;;;;;1.71;47.17;100732.66;4989456;28;8877;-75
2022/03/11 10:44:58;;;;;;;;;34.75;30.25;;;;;1.47;47.94;100740.78;4977411;28;8990;-74
2022/03/11 10:47:30;;;;;;;;;31.25;28.75;;;;;1.67;48.18;100728.16;4990933;28;8872;-75
2022/03/11 10:50:01;;;;;;;;;31.75;25.50;;;;;2.10;46.09;100727.88;4991116;28;8934;-75
2022/03/11 10:52:33;;;;;;;;;35.25;34.00;;;;;2.01;46.78;100724.81;4981906;28;8931;-78
2022/03/11 10:55:17;;;;;;;;;31.50;30.50;;;;;2.39;45.78;100716.50;4974229;28;8987;-74
2022/03/11 10:57:47;;;;;;;;;39.50;31.00;;;;;2.92;46.50;100702.84;4990235;28;8919;-76
2022/03/11 11:00:21;;;;;;;;;34.75;29.50;;;;;2.41;45.40;100707.16;4969396;28;8941;-75
2022/03/11 11:02:51;;;;;;;;;28.25;22.50;;;;;2.20;45.82;100713.81;4967337;28;8985;-77
2022/03/11 11:05:21;;;;;;;;;35.25;29.75;;;;;2.34;45.57;100700.84;4988978;28;8968;-74
2022/03/11 11:07:52;;;;;;;;;39.00;37.50;;;;;2.15;45.51;100695.53;4988955;28;8877;-76
2022/03/11 11:10:23;;;;;;;;;34.75;29.25;;;;;1.87;45.75;100688.06;4947508;28;8848;-76
2022/03/11 11:12:52;;;;;;;;;28.25;25.50;;;;;2.08;45.25;100699.50;4964711;28;8966;-75
2022/03/11 11:15:22;;;;;;;;;41.75;35.75;;;;;2.41;44.70;100698.56;4989838;28;8909;-74
2022/03/11 11:17:52;;;;;;;;;30.25;26.75;;;;;2.41;44.67;100702.03;4993150;28;8907;-75
2022/03/11 11:20:23;;;;;;;;;32.50;29.00;;;;;2.38;43.93;100704.44;4988346;28;8864;-76
2022/03/11 11:22:55;;;;;;;;;31.25;26.00;;;;;2.30;44.82;100695.44;4973004;28;8889;-74
2022/03/11 11:25:24;;;;;;;;;33.25;28.75;;;;;2.38;43.67;100696.69;4989439;28;8935;-76
2022/03/11 11:27:57;;;;;;;;;33.00;27.50;;;;;2.43;43.49;100684.09;4987016;28;8877;-75
2022/03/11 11:30:26;;;;;;;;;34.00;29.25;;;;;2.68;43.54;100687.06;4988326;28;8845;-75
2022/03/11 11:32:55;;;;;;;;;23.50;19.00;;;;;3.08;42.83;100670.09;4988817;28;8877;-75